createdAt,value
2023-07-08T00:01:22.920Z,24.70
2023-07-08T00:03:52.688Z,24.70
2023-07-08T00:06:27.574Z,24.70
2023-07-08T00:08:57.337Z,24.60
2023-07-08T00:11:24.815Z,24.60
2023-07-08T00:13:56.995Z,24.60
2023-07-08T00:16:27.927Z,24.50
2023-07-08T00:18:57.744Z,24.50
2023-07-08T00:21:27.619Z,24.50
2023-07-08T00:23:55.130Z,24.40
2023-07-08T00:26:30.367Z,24.40
2023-07-08T00:28:57.978Z,24.40
2023-07-08T00:31:27.073Z,24.40
2023-07-08T00:33:57.933Z,24.40
2023-07-08T00:36:28.461Z,24.30
2023-07-08T00:38:56.520Z,24.30
2023-07-08T00:41:26.947Z,24.30
2023-07-08T00:43:58.617Z,24.20
2023-07-08T00:46:28.731Z,24.20
2023-07-08T00:49:08.113Z,24.20
2023-07-08T00:51:40.611Z,24.10
2023-07-08T00:54:18.822Z,24.10
2023-07-08T00:56:52.228Z,24.10
2023-07-08T00:59:22.857Z,24.00
2023-07-08T01:01:50.800Z,24.00
2023-07-08T01:04:46.181Z,24.00
2023-07-08T01:07:22.581Z,24.00
2023-07-08T01:10:02.419Z,23.90
2023-07-08T01:12:35.570Z,23.90
2023-07-08T01:15:04.728Z,23.90
2023-07-08T01:17:35.065Z,23.90
2023-07-08T01:20:06.908Z,23.80
2023-07-08T01:22:38.376Z,23.80
2023-07-08T01:25:07.045Z,23.70
2023-07-08T01:27:41.430Z,23.70
2023-07-08T01:30:11.031Z,23.70
2023-07-08T01:32:44.309Z,23.70
2023-07-08T01:35:13.840Z,23.60
2023-07-08T01:37:50.313Z,23.60
2023-07-08T01:40:20.644Z,23.60
2023-07-08T01:42:51.048Z,23.50
2023-07-08T01:45:20.315Z,23.50
2023-07-08T01:48:12.183Z,23.50
2023-07-08T01:50:52.272Z,23.50
2023-07-08T01:53:30.909Z,23.40
2023-07-08T01:55:58.504Z,23.40
2023-07-08T01:58:26.130Z,23.40
2023-07-08T02:00:55.838Z,23.40
2023-07-08T02:03:23.837Z,23.30
2023-07-08T02:05:51.185Z,23.30
2023-07-08T02:08:18.971Z,23.30
2023-07-08T02:10:54.405Z,23.30
2023-07-08T02:13:25.479Z,23.20
2023-07-08T02:15:53.060Z,23.20
2023-07-08T02:18:20.445Z,23.20
2023-07-08T02:20:50.580Z,23.20
2023-07-08T02:23:20.242Z,23.20
2023-07-08T02:25:57.272Z,23.20
2023-07-08T02:28:25.032Z,23.20
2023-07-08T02:30:54.624Z,23.10
2023-07-08T02:33:33.751Z,23.10
2023-07-08T02:36:02.096Z,23.10
2023-07-08T02:38:32.229Z,23.10
2023-07-08T02:41:01.165Z,23.10
2023-07-08T02:43:28.733Z,23.10
2023-07-08T02:45:56.260Z,23.00
2023-07-08T02:48:23.650Z,23.00
2023-07-08T02:50:51.016Z,23.00
2023-07-08T02:53:20.640Z,23.00
2023-07-08T02:55:50.050Z,23.00
2023-07-08T02:58:17.406Z,22.90
2023-07-08T03:00:44.725Z,22.90
2023-07-08T03:03:12.226Z,22.90
2023-07-08T03:05:41.873Z,22.80
2023-07-08T03:08:11.590Z,22.80
2023-07-08T03:10:39.015Z,22.80
2023-07-08T03:13:06.323Z,22.80
2023-07-08T03:15:33.754Z,22.70
2023-07-08T03:18:02.055Z,22.70
2023-07-08T03:20:33.554Z,22.60
2023-07-08T03:23:00.796Z,22.60
2023-07-08T03:25:28.070Z,22.70
2023-07-08T03:27:56.571Z,22.60
2023-07-08T03:30:26.239Z,22.60
2023-07-08T03:32:58.639Z,22.50
2023-07-08T03:35:26.416Z,22.50
2023-07-08T03:37:54.308Z,22.50
2023-07-08T03:40:21.742Z,22.50
2023-07-08T03:42:49.074Z,22.50
2023-07-08T03:45:21.112Z,22.40
2023-07-08T03:47:48.559Z,22.40
2023-07-08T03:50:25.011Z,22.40
2023-07-08T03:52:54.897Z,22.40
2023-07-08T03:55:22.606Z,22.40
2023-07-08T03:57:50.239Z,22.30
2023-07-08T04:00:17.682Z,22.30
2023-07-08T04:02:46.447Z,22.30
2023-07-08T04:05:18.984Z,22.30
2023-07-08T04:07:49.118Z,22.30
2023-07-08T04:10:18.117Z,22.30
2023-07-08T04:12:50.133Z,22.30
2023-07-08T04:15:19.876Z,22.20
2023-07-08T04:17:52.966Z,22.20
2023-07-08T04:20:20.734Z,22.20
2023-07-08T04:22:50.273Z,22.20
2023-07-08T04:25:20.318Z,22.20
2023-07-08T04:27:47.781Z,22.20
2023-07-08T04:30:26.239Z,22.20
2023-07-08T04:32:53.760Z,22.20
2023-07-08T04:35:21.165Z,22.20
2023-07-08T04:37:48.877Z,22.20
2023-07-08T04:40:21.518Z,22.20
2023-07-08T04:42:51.465Z,22.20
2023-07-08T04:45:19.334Z,22.20
2023-07-08T04:47:54.264Z,22.20
2023-07-08T04:50:22.163Z,22.20
2023-07-08T04:52:50.899Z,22.20
2023-07-08T04:55:21.799Z,22.20
2023-07-08T04:57:49.273Z,22.30
2023-07-08T05:00:18.567Z,22.30
2023-07-08T05:02:46.079Z,22.30
2023-07-08T05:05:14.798Z,22.30
2023-07-08T05:07:42.109Z,22.30
2023-07-08T05:10:09.576Z,22.30
2023-07-08T05:12:37.807Z,22.40
2023-07-08T05:15:10.142Z,22.40
2023-07-08T05:17:39.272Z,22.40
2023-07-08T05:20:12.038Z,22.40
2023-07-08T05:22:42.303Z,22.40
2023-07-08T05:25:10.344Z,22.40
2023-07-08T05:27:37.707Z,22.40
2023-07-08T05:30:15.602Z,22.50
2023-07-08T05:32:43.186Z,22.50
2023-07-08T05:35:11.208Z,22.50
2023-07-08T05:37:41.248Z,22.50
2023-07-08T05:40:09.858Z,22.50
2023-07-08T05:42:39.756Z,22.50
2023-07-08T05:45:11.269Z,22.50
2023-07-08T05:47:41.563Z,22.50
2023-07-08T05:50:09.235Z,22.50
2023-07-08T05:52:41.173Z,22.50
2023-07-08T05:55:08.949Z,22.50
2023-07-08T05:57:36.275Z,22.50
2023-07-08T06:00:04.902Z,22.50
2023-07-08T06:02:34.700Z,22.50
2023-07-08T06:05:04.621Z,22.60
2023-07-08T06:07:34.397Z,22.50
2023-07-08T06:10:01.867Z,22.60
2023-07-08T06:12:29.210Z,22.60
2023-07-08T06:14:56.525Z,22.60
2023-07-08T06:17:24.006Z,22.60
2023-07-08T06:19:53.838Z,22.60
2023-07-08T06:24:57.079Z,22.60
2023-07-08T06:27:26.033Z,22.70
2023-07-08T06:29:54.902Z,22.80
2023-07-08T06:32:22.303Z,22.80
2023-07-08T06:34:49.670Z,22.90
2023-07-08T06:37:16.980Z,22.90
2023-07-08T06:39:44.339Z,23.00
2023-07-08T06:42:14.059Z,23.00
2023-07-08T06:44:42.960Z,23.00
2023-07-08T06:47:13.122Z,23.10
2023-07-08T06:49:42.921Z,23.20
2023-07-08T06:52:10.289Z,23.20
2023-07-08T06:54:39.879Z,23.30
2023-07-08T06:57:07.880Z,23.40
2023-07-08T06:59:35.679Z,23.40
2023-07-08T07:02:03.129Z,23.40
2023-07-08T07:04:33.551Z,23.40
2023-07-08T07:07:03.250Z,23.50
2023-07-08T07:09:31.579Z,23.50
2023-07-08T07:11:58.956Z,23.60
2023-07-08T07:17:08.154Z,23.60
2023-07-08T07:19:36.745Z,23.70
2023-07-08T07:22:04.227Z,23.70
2023-07-08T07:24:31.526Z,23.80
2023-07-08T07:26:59.247Z,23.80
2023-07-08T07:29:28.671Z,23.90
2023-07-08T07:31:56.074Z,24.00
2023-07-08T07:34:23.728Z,24.00
2023-07-08T07:36:51.031Z,24.00
2023-07-08T07:39:18.350Z,24.10
2023-07-08T07:41:47.923Z,24.20
2023-07-08T07:44:15.243Z,24.30
2023-07-08T07:46:42.681Z,24.40
2023-07-08T07:49:14.628Z,24.40
2023-07-08T07:51:41.972Z,24.60
2023-07-08T07:54:11.395Z,24.70
2023-07-08T07:56:41.318Z,24.80
2023-07-08T07:59:08.626Z,24.90
2023-07-08T08:01:38.197Z,25.00
2023-07-08T08:04:06.086Z,25.10
2023-07-08T08:06:33.402Z,25.20
2023-07-08T08:09:00.788Z,25.20
2023-07-08T08:11:28.232Z,25.40
2023-07-08T08:13:57.775Z,25.40
2023-07-08T08:16:27.617Z,25.50
2023-07-08T08:18:54.989Z,25.60
2023-07-08T08:21:22.891Z,25.60
2023-07-08T08:23:50.308Z,25.70
2023-07-08T08:26:22.196Z,25.70
2023-07-08T08:28:49.540Z,25.80
2023-07-08T08:31:19.627Z,25.80
2023-07-08T08:33:47.379Z,25.90
2023-07-08T08:36:14.672Z,25.90
2023-07-08T08:38:44.287Z,26.00
2023-07-08T08:41:15.878Z,26.10
2023-07-08T08:43:45.057Z,26.10
2023-07-08T08:46:56.277Z,26.10
2023-07-08T08:49:42.824Z,26.30
2023-07-08T08:52:10.266Z,26.30
2023-07-08T08:54:39.267Z,26.30
2023-07-08T08:57:38.884Z,26.40
2023-07-08T09:00:10.006Z,26.50
2023-07-08T09:02:43.430Z,26.60
2023-07-08T09:05:16.011Z,26.60
2023-07-08T09:07:58.328Z,26.70
2023-07-08T09:10:45.055Z,26.80
2023-07-08T09:13:29.423Z,26.80
2023-07-08T09:16:07.224Z,26.90
2023-07-08T09:18:42.138Z,27.00
2023-07-08T09:21:20.458Z,27.00
2023-07-08T09:23:51.372Z,27.10
2023-07-08T09:26:23.427Z,27.20
2023-07-08T09:28:50.992Z,27.20
2023-07-08T09:31:31.845Z,27.20
2023-07-08T09:34:12.348Z,27.30
2023-07-08T09:36:42.857Z,27.40
2023-07-08T09:39:16.255Z,27.40
2023-07-08T09:41:47.856Z,27.50
2023-07-08T09:44:31.387Z,27.50
2023-07-08T09:47:00.105Z,27.60
2023-07-08T09:49:36.331Z,27.60
2023-07-08T09:52:05.343Z,27.70
2023-07-08T09:54:36.361Z,27.70
2023-07-08T09:57:30.299Z,27.70
2023-07-08T10:00:07.596Z,27.80
2023-07-08T10:02:45.830Z,27.90
2023-07-08T10:05:18.834Z,28.00
2023-07-08T10:07:50.301Z,28.10
2023-07-08T10:10:23.896Z,28.20
2023-07-08T10:13:05.854Z,28.20
2023-07-08T10:15:57.336Z,28.30
2023-07-08T10:18:29.858Z,28.40
2023-07-08T10:21:08.005Z,28.40
2023-07-08T10:23:35.266Z,28.50
2023-07-08T10:26:15.160Z,28.50
2023-07-08T10:28:50.844Z,28.60
2023-07-08T10:31:41.982Z,28.60
2023-07-08T10:34:18.275Z,28.70
2023-07-08T10:36:54.496Z,28.80
2023-07-08T10:39:48.756Z,28.80
2023-07-08T10:42:51.468Z,28.80
2023-07-08T10:45:27.571Z,28.90
2023-07-08T10:48:13.014Z,28.90
2023-07-08T10:51:08.146Z,29.00
2023-07-08T10:53:59.693Z,29.00
2023-07-08T10:56:45.232Z,29.00
2023-07-08T10:59:33.594Z,29.10
2023-07-08T11:02:03.994Z,29.10
2023-07-08T11:04:37.056Z,29.10
2023-07-08T11:07:13.710Z,29.20
2023-07-08T11:09:51.028Z,29.20
2023-07-08T11:12:33.657Z,29.20
2023-07-08T11:15:14.756Z,29.30
2023-07-08T11:17:59.595Z,29.30
2023-07-08T11:20:38.975Z,29.40
2023-07-08T11:23:40.487Z,29.40
2023-07-08T11:26:39.742Z,29.40
2023-07-08T11:29:24.889Z,29.50
2023-07-08T11:31:54.066Z,29.50
2023-07-08T11:34:22.028Z,29.50
2023-07-08T11:36:53.451Z,29.60
2023-07-08T11:39:30.985Z,29.60
2023-07-08T11:42:26.545Z,29.60
2023-07-08T11:44:57.470Z,29.70
2023-07-08T11:47:47.129Z,29.70
2023-07-08T11:50:23.775Z,29.80
2023-07-08T11:52:59.855Z,29.80
2023-07-08T11:55:37.895Z,29.80
2023-07-08T11:58:30.458Z,29.90
2023-07-08T12:01:41.823Z,29.90
2023-07-08T12:04:09.370Z,30.00
2023-07-08T12:06:36.867Z,30.00
2023-07-08T12:09:28.124Z,30.10
2023-07-08T12:12:03.077Z,30.10
2023-07-08T12:14:32.459Z,30.20
2023-07-08T12:17:00.540Z,30.20
2023-07-08T12:19:34.175Z,30.20
2023-07-08T12:22:02.959Z,30.30
2023-07-08T12:24:30.570Z,30.30
2023-07-08T12:26:58.089Z,30.40
2023-07-08T12:29:29.121Z,30.50
2023-07-08T12:31:57.334Z,30.50
2023-07-08T12:34:26.919Z,30.60
2023-07-08T12:36:55.187Z,30.60
2023-07-08T12:39:23.182Z,30.70
2023-07-08T12:41:52.506Z,30.70
2023-07-08T12:44:23.183Z,30.80
2023-07-08T12:46:53.748Z,30.80
2023-07-08T12:49:21.813Z,30.90
2023-07-08T12:51:51.661Z,30.90
2023-07-08T12:54:23.297Z,30.90
2023-07-08T12:56:52.319Z,30.90
2023-07-08T12:59:22.844Z,31.00
2023-07-08T13:01:51.723Z,31.00
2023-07-08T13:04:20.350Z,31.10
2023-07-08T13:06:49.120Z,31.10
2023-07-08T13:09:25.283Z,31.10
2023-07-08T13:11:54.976Z,31.20
2023-07-08T13:14:25.684Z,31.10
2023-07-08T13:16:54.025Z,31.20
2023-07-08T13:19:23.135Z,31.20
2023-07-08T13:21:52.015Z,31.30
2023-07-08T13:24:20.590Z,31.40
2023-07-08T13:26:50.035Z,31.40
2023-07-08T13:29:19.722Z,31.50
2023-07-08T13:31:54.619Z,31.50
2023-07-08T13:34:25.901Z,31.70
2023-07-08T13:36:53.343Z,31.80
2023-07-08T13:39:30.996Z,31.80
2023-07-08T13:41:59.507Z,32.00
2023-07-08T13:44:27.713Z,32.10
2023-07-08T13:47:00.877Z,32.10
2023-07-08T13:49:31.655Z,32.30
2023-07-08T13:52:09.397Z,32.30
2023-07-08T13:54:54.135Z,32.40
2023-07-08T13:57:31.517Z,32.50
2023-07-08T13:59:59.021Z,32.60
2023-07-08T14:02:32.999Z,32.60
2023-07-08T14:05:01.521Z,32.50
2023-07-08T14:07:31.978Z,32.50
2023-07-08T14:09:59.476Z,32.50
2023-07-08T14:12:26.916Z,32.40
2023-07-08T14:14:54.259Z,32.40
2023-07-08T14:17:27.424Z,32.30
2023-07-08T14:19:55.239Z,32.30
2023-07-08T14:22:28.124Z,32.30
2023-07-08T14:24:56.780Z,32.10
2023-07-08T14:27:26.631Z,32.20
2023-07-08T14:29:54.002Z,32.10
2023-07-08T14:32:31.993Z,32.10
2023-07-08T14:35:20.265Z,32.00
2023-07-08T14:37:49.880Z,32.00
2023-07-08T14:40:39.253Z,32.00
2023-07-08T14:43:25.777Z,31.90
2023-07-08T14:45:55.806Z,31.90
2023-07-08T14:48:26.134Z,31.90
2023-07-08T14:50:54.545Z,31.90
2023-07-08T14:53:22.005Z,31.80
2023-07-08T14:55:53.501Z,31.80
2023-07-08T14:58:30.146Z,31.80
2023-07-08T15:01:06.719Z,31.80
2023-07-08T15:03:34.195Z,31.70
2023-07-08T15:06:02.432Z,31.70
2023-07-08T15:08:32.287Z,31.70
2023-07-08T15:11:00.542Z,31.70
2023-07-08T15:13:30.588Z,31.70
2023-07-08T15:15:58.448Z,31.70
2023-07-08T15:18:26.385Z,31.70
2023-07-08T15:20:53.907Z,31.70
2023-07-08T15:23:21.354Z,31.60
2023-07-08T15:25:51.202Z,31.60
2023-07-08T15:28:50.516Z,31.60
2023-07-08T15:31:32.319Z,31.60
2023-07-08T15:34:06.016Z,31.60
2023-07-08T15:36:33.356Z,31.60
2023-07-08T15:39:03.518Z,31.60
2023-07-08T15:41:34.825Z,31.60
2023-07-08T15:44:02.499Z,31.60
2023-07-08T15:46:50.052Z,31.60
2023-07-08T15:49:23.998Z,31.60
2023-07-08T15:51:51.722Z,31.50
2023-07-08T15:54:20.436Z,31.50
2023-07-08T15:56:53.011Z,31.50
2023-07-08T15:59:29.628Z,31.50
2023-07-08T16:02:03.318Z,31.50
2023-07-08T16:04:34.400Z,31.50
2023-07-08T16:07:06.974Z,31.40
2023-07-08T16:09:34.538Z,31.40
2023-07-08T16:12:01.898Z,31.40
2023-07-08T16:14:29.233Z,31.40
2023-07-08T16:16:59.576Z,31.40
2023-07-08T16:19:31.030Z,31.40
2023-07-08T16:21:58.382Z,31.40
2023-07-08T16:24:25.796Z,31.40
2023-07-08T16:26:53.214Z,31.40
2023-07-08T16:29:21.704Z,31.30
2023-07-08T16:31:49.158Z,31.30
2023-07-08T16:34:16.505Z,31.30
2023-07-08T16:36:44.006Z,31.30
2023-07-08T16:39:11.416Z,31.30
2023-07-08T16:41:38.843Z,31.20
2023-07-08T16:44:21.532Z,31.20
2023-07-08T16:46:51.381Z,31.20
2023-07-08T16:49:18.747Z,31.20
2023-07-08T16:51:46.108Z,31.20
2023-07-08T16:54:16.846Z,31.20
2023-07-08T16:56:45.636Z,31.10
2023-07-08T16:59:17.867Z,31.20
2023-07-08T17:01:47.310Z,31.10
2023-07-08T17:04:15.425Z,31.10
2023-07-08T17:06:42.964Z,31.10
2023-07-08T17:09:11.997Z,31.10
2023-07-08T17:11:42.346Z,31.10
2023-07-08T17:14:13.282Z,31.00
2023-07-08T17:16:41.277Z,31.00
2023-07-08T17:19:12.546Z,31.00
2023-07-08T17:21:40.071Z,31.00
2023-07-08T17:24:11.773Z,31.00
2023-07-08T17:26:39.704Z,30.90
2023-07-08T17:29:07.077Z,30.90
2023-07-08T17:31:47.266Z,30.90
2023-07-08T17:34:24.396Z,30.90
2023-07-08T17:36:52.187Z,30.90
2023-07-08T17:39:20.671Z,30.90
2023-07-08T17:41:51.032Z,30.80
2023-07-08T17:44:23.259Z,30.80
2023-07-08T17:46:52.851Z,30.80
2023-07-08T17:49:20.228Z,30.70
2023-07-08T17:51:48.198Z,30.70
2023-07-08T17:54:16.217Z,30.70
2023-07-08T17:56:49.453Z,30.70
2023-07-08T17:59:19.910Z,30.70
2023-07-08T18:01:47.705Z,30.60
2023-07-08T18:04:15.065Z,30.50
2023-07-08T18:06:42.468Z,30.50
2023-07-08T18:09:12.939Z,30.50
2023-07-08T18:11:48.704Z,30.40
2023-07-08T18:14:19.038Z,30.40
2023-07-08T18:16:49.841Z,30.30
2023-07-08T18:19:17.206Z,30.30
2023-07-08T18:21:46.839Z,30.20
2023-07-08T18:24:18.018Z,30.20
2023-07-08T18:26:45.303Z,30.20
2023-07-08T18:29:13.695Z,30.10
2023-07-08T18:31:44.709Z,30.10
2023-07-08T18:34:11.997Z,30.00
2023-07-08T18:36:39.680Z,30.10
2023-07-08T18:39:09.671Z,30.00
2023-07-08T18:41:46.662Z,30.00
2023-07-08T18:44:27.914Z,30.00
2023-07-08T18:46:55.490Z,29.90
2023-07-08T18:49:25.381Z,29.90
2023-07-08T18:51:53.019Z,29.80
2023-07-08T18:54:21.874Z,29.80
2023-07-08T18:56:49.869Z,29.80
2023-07-08T18:59:17.206Z,29.70
2023-07-08T19:01:47.234Z,29.70
2023-07-08T19:04:26.220Z,29.70
2023-07-08T19:06:55.488Z,29.60
2023-07-08T19:09:25.042Z,29.60
2023-07-08T19:11:54.744Z,29.60
2023-07-08T19:14:22.039Z,29.50
2023-07-08T19:16:49.449Z,29.50
2023-07-08T19:19:17.762Z,29.50
2023-07-08T19:21:45.840Z,29.50
2023-07-08T19:24:31.981Z,29.40
2023-07-08T19:27:02.789Z,29.40
2023-07-08T19:29:30.077Z,29.40
2023-07-08T19:31:57.400Z,29.30
2023-07-08T19:34:27.458Z,29.40
2023-07-08T19:36:56.041Z,29.30
2023-07-08T19:39:23.432Z,29.30
2023-07-08T19:41:50.753Z,29.30
2023-07-08T19:44:27.522Z,29.30
2023-07-08T19:46:57.135Z,29.30
2023-07-08T19:49:26.730Z,29.20
2023-07-08T19:51:56.203Z,29.20
2023-07-08T19:54:25.621Z,29.20
2023-07-08T19:56:52.999Z,29.10
2023-07-08T19:59:20.567Z,29.10
2023-07-08T20:01:50.115Z,29.10
2023-07-08T20:04:17.836Z,29.10
2023-07-08T20:06:45.758Z,29.00
2023-07-08T20:09:16.729Z,29.00
2023-07-08T20:11:44.569Z,29.00
2023-07-08T20:14:16.386Z,29.00
2023-07-08T20:16:43.850Z,29.00
2023-07-08T20:19:22.276Z,29.00
2023-07-08T20:21:49.587Z,29.00
2023-07-08T20:24:17.007Z,29.00
2023-07-08T20:26:48.361Z,28.90
2023-07-08T20:29:19.814Z,28.90
2023-07-08T20:31:47.261Z,28.90
2023-07-08T20:34:19.125Z,28.90
2023-07-08T20:36:47.234Z,28.90
2023-07-08T20:39:17.656Z,28.90
2023-07-08T20:41:47.195Z,28.80
2023-07-08T20:44:14.580Z,28.80
2023-07-08T20:46:46.716Z,28.80
2023-07-08T20:49:14.219Z,28.80
2023-07-08T20:51:44.171Z,28.80
2023-07-08T20:54:14.922Z,28.70
2023-07-08T20:56:42.887Z,28.70
2023-07-08T20:59:20.820Z,28.70
2023-07-08T21:01:52.708Z,28.60
2023-07-08T21:04:23.210Z,28.60
2023-07-08T21:06:50.572Z,28.50
2023-07-08T21:09:23.100Z,28.50
2023-07-08T21:11:50.413Z,28.50
2023-07-08T21:14:17.749Z,28.50
2023-07-08T21:16:47.011Z,28.40
2023-07-08T21:19:14.390Z,28.40
2023-07-08T21:21:41.792Z,28.30
2023-07-08T21:24:16.238Z,28.30
2023-07-08T21:26:47.024Z,28.20
2023-07-08T21:29:14.622Z,28.20
2023-07-08T21:31:42.043Z,28.20
2023-07-08T21:34:10.731Z,28.20
2023-07-08T21:36:38.803Z,28.10
2023-07-08T21:39:23.495Z,28.10
2023-07-08T21:41:50.908Z,28.00
2023-07-08T21:44:18.889Z,28.00
2023-07-08T21:46:46.265Z,27.90
2023-07-08T21:49:16.405Z,27.90
2023-07-08T21:51:43.989Z,27.90
2023-07-08T21:54:12.869Z,27.90
2023-07-08T21:56:40.357Z,27.80
2023-07-08T21:59:16.741Z,27.80
2023-07-08T22:01:50.476Z,27.80
2023-07-08T22:04:20.841Z,27.70
2023-07-08T22:06:48.326Z,27.70
2023-07-08T22:09:15.679Z,27.70
2023-07-08T22:11:43.079Z,27.70
2023-07-08T22:14:11.823Z,27.60
2023-07-08T22:16:39.388Z,27.60
2023-07-08T22:19:06.837Z,27.60
2023-07-08T22:21:35.873Z,27.60
2023-07-08T22:24:10.798Z,27.50
2023-07-08T22:26:45.926Z,27.50
2023-07-08T22:29:15.745Z,27.40
2023-07-08T22:31:44.834Z,27.40
2023-07-08T22:34:19.660Z,27.30
2023-07-08T22:36:49.579Z,27.30
2023-07-08T22:39:16.930Z,27.30
2023-07-08T22:41:50.830Z,27.20
2023-07-08T22:44:21.291Z,27.20
2023-07-08T22:46:48.935Z,27.20
2023-07-08T22:49:24.651Z,27.10
2023-07-08T22:51:57.078Z,27.10
2023-07-08T22:54:29.421Z,27.10
2023-07-08T22:57:02.028Z,27.10
2023-07-08T22:59:34.460Z,27.00
2023-07-08T23:02:04.291Z,27.00
2023-07-08T23:04:33.808Z,26.90
2023-07-08T23:07:04.547Z,26.90
2023-07-08T23:09:31.998Z,26.80
2023-07-08T23:11:59.290Z,26.80
2023-07-08T23:14:26.613Z,26.80
2023-07-08T23:16:53.927Z,26.70
2023-07-08T23:19:21.253Z,26.70
2023-07-08T23:21:48.673Z,26.70
2023-07-08T23:24:15.994Z,26.70
2023-07-08T23:26:46.209Z,26.60
2023-07-08T23:29:22.835Z,26.60
2023-07-08T23:31:51.511Z,26.60
2023-07-08T23:34:22.568Z,26.50
2023-07-08T23:36:52.702Z,26.50
2023-07-08T23:39:21.968Z,26.50
2023-07-08T23:41:50.336Z,26.50
2023-07-08T23:44:21.097Z,26.40
2023-07-08T23:46:57.550Z,26.40
2023-07-08T23:49:34.935Z,26.30
2023-07-08T23:52:04.538Z,26.30
2023-07-08T23:54:35.577Z,26.30
2023-07-08T23:57:12.517Z,26.20
2023-07-08T23:59:47.871Z,26.20
